sensor_id;sensor_type;location;lat;lon;timestamp;temperature;humidity
12315;DHT22;23886;46.614;14.276;2022-08-19T00:02:01;18.60;99.90
12315;DHT22;23886;46.614;14.276;2022-08-19T00:04:31;18.50;99.90
12315;DHT22;23886;46.614;14.276;2022-08-19T00:06:59;18.40;99.90
12315;DHT22;23886;46.614;14.276;2022-08-19T00:09:27;18.50;99.90
12315;DHT22;23886;46.614;14.276;2022-08-19T00:11:56;18.50;99.90
12315;DHT22;23886;46.614;14.276;2022-08-19T00:14:24;18.60;99.90
12315;DHT22;23886;46.614;14.276;2022-08-19T00:16:52;18.60;99.90
12315;DHT22;23886;46.614;14.276;2022-08-19T00:19:20;18.60;99.90
12315;DHT22;23886;46.614;14.276;2022-08-19T00:21:47;18.50;99.90
12315;DHT22;23886;46.614;14.276;2022-08-19T00:24:15;18.50;99.90
12315;DHT22;23886;46.614;14.276;2022-08-19T00:26:43;18.50;99.90
12315;DHT22;23886;46.614;14.276;2022-08-19T00:29:13;18.50;99.90
12315;DHT22;23886;46.614;14.276;2022-08-19T00:31:41;18.40;99.90
12315;DHT22;23886;46.614;14.276;2022-08-19T00:34:08;18.40;99.90
12315;DHT22;23886;46.614;14.276;2022-08-19T00:36:36;18.40;99.90
12315;DHT22;23886;46.614;14.276;2022-08-19T00:39:04;18.40;99.90
12315;DHT22;23886;46.614;14.276;2022-08-19T00:41:31;18.40;99.90
12315;DHT22;23886;46.614;14.276;2022-08-19T00:44:00;18.30;99.90
12315;DHT22;23886;46.614;14.276;2022-08-19T00:46:29;18.20;99.90
12315;DHT22;23886;46.614;14.276;2022-08-19T00:48:57;18.20;99.90
12315;DHT22;23886;46.614;14.276;2022-08-19T00:51:25;18.20;99.90
12315;DHT22;23886;46.614;14.276;2022-08-19T00:53:55;18.30;99.90
12315;DHT22;23886;46.614;14.276;2022-08-19T00:56:24;18.40;99.90
12315;DHT22;23886;46.614;14.276;2022-08-19T00:58:52;18.30;99.90
12315;DHT22;23886;46.614;14.276;2022-08-19T01:01:20;18.30;99.90
12315;DHT22;23886;46.614;14.276;2022-08-19T01:03:49;18.40;99.90
12315;DHT22;23886;46.614;14.276;2022-08-19T01:06:16;18.50;99.90
12315;DHT22;23886;46.614;14.276;2022-08-19T01:08:43;18.30;99.90
12315;DHT22;23886;46.614;14.276;2022-08-19T01:11:10;18.20;99.90
12315;DHT22;23886;46.614;14.276;2022-08-19T01:13:38;18.10;99.90
12315;DHT22;23886;46.614;14.276;2022-08-19T01:16:08;18.20;99.90
12315;DHT22;23886;46.614;14.276;2022-08-19T01:18:40;18.20;99.90
12315;DHT22;23886;46.614;14.276;2022-08-19T01:21:15;18.20;99.90
12315;DHT22;23886;46.614;14.276;2022-08-19T01:23:44;18.10;99.90
12315;DHT22;23886;46.614;14.276;2022-08-19T01:26:14;18.10;99.90
12315;DHT22;23886;46.614;14.276;2022-08-19T01:28:43;18.20;99.90
12315;DHT22;23886;46.614;14.276;2022-08-19T01:31:13;18.10;99.90
12315;DHT22;23886;46.614;14.276;2022-08-19T01:33:40;18.10;99.90
12315;DHT22;23886;46.614;14.276;2022-08-19T01:36:10;18.20;99.90
12315;DHT22;23886;46.614;14.276;2022-08-19T01:38:40;18.20;99.90
12315;DHT22;23886;46.614;14.276;2022-08-19T01:41:10;18.20;99.90
12315;DHT22;23886;46.614;14.276;2022-08-19T01:43:38;18.20;99.90
12315;DHT22;23886;46.614;14.276;2022-08-19T01:46:05;18.20;99.90
12315;DHT22;23886;46.614;14.276;2022-08-19T01:48:34;18.20;99.90
12315;DHT22;23886;46.614;14.276;2022-08-19T01:51:01;18.10;99.90
12315;DHT22;23886;46.614;14.276;2022-08-19T01:53:29;18.10;99.90
12315;DHT22;23886;46.614;14.276;2022-08-19T01:55:56;18.10;99.90
12315;DHT22;23886;46.614;14.276;2022-08-19T01:58:27;18.10;99.90
12315;DHT22;23886;46.614;14.276;2022-08-19T02:00:56;17.90;99.90
12315;DHT22;23886;46.614;14.276;2022-08-19T02:03:23;17.80;99.90
12315;DHT22;23886;46.614;14.276;2022-08-19T02:05:54;17.80;99.90
12315;DHT22;23886;46.614;14.276;2022-08-19T02:08:22;18.00;99.90
12315;DHT22;23886;46.614;14.276;2022-08-19T02:10:49;18.00;99.90
12315;DHT22;23886;46.614;14.276;2022-08-19T02:13:16;17.90;99.90
12315;DHT22;23886;46.614;14.276;2022-08-19T02:15:45;17.90;99.90
12315;DHT22;23886;46.614;14.276;2022-08-19T02:18:12;17.90;99.90
12315;DHT22;23886;46.614;14.276;2022-08-19T02:20:40;17.80;99.90
12315;DHT22;23886;46.614;14.276;2022-08-19T02:23:09;17.80;99.90
12315;DHT22;23886;46.614;14.276;2022-08-19T02:25:36;17.70;99.90
12315;DHT22;23886;46.614;14.276;2022-08-19T02:28:04;17.70;99.90
12315;DHT22;23886;46.614;14.276;2022-08-19T02:30:31;17.70;99.90
12315;DHT22;23886;46.614;14.276;2022-08-19T02:32:59;17.80;99.90
12315;DHT22;23886;46.614;14.276;2022-08-19T02:35:26;17.80;99.90
12315;DHT22;23886;46.614;14.276;2022-08-19T02:37:53;17.80;99.90
12315;DHT22;23886;46.614;14.276;2022-08-19T02:40:37;17.90;99.90
12315;DHT22;23886;46.614;14.276;2022-08-19T02:43:06;17.80;99.90
12315;DHT22;23886;46.614;14.276;2022-08-19T02:45:35;17.80;99.90
12315;DHT22;23886;46.614;14.276;2022-08-19T02:48:04;17.80;99.90
12315;DHT22;23886;46.614;14.276;2022-08-19T02:50:31;17.80;99.90
12315;DHT22;23886;46.614;14.276;2022-08-19T02:52:59;17.80;99.90
12315;DHT22;23886;46.614;14.276;2022-08-19T02:55:26;17.90;99.90
12315;DHT22;23886;46.614;14.276;2022-08-19T02:57:53;18.00;99.90
12315;DHT22;23886;46.614;14.276;2022-08-19T03:00:20;18.10;99.90
12315;DHT22;23886;46.614;14.276;2022-08-19T03:02:47;18.10;99.90
12315;DHT22;23886;46.614;14.276;2022-08-19T03:05:16;18.00;99.90
12315;DHT22;23886;46.614;14.276;2022-08-19T03:07:43;18.10;99.90
12315;DHT22;23886;46.614;14.276;2022-08-19T03:10:10;17.90;99.90
12315;DHT22;23886;46.614;14.276;2022-08-19T03:12:38;17.90;99.90
12315;DHT22;23886;46.614;14.276;2022-08-19T03:15:07;17.80;99.90
12315;DHT22;23886;46.614;14.276;2022-08-19T03:17:34;17.80;99.90
12315;DHT22;23886;46.614;14.276;2022-08-19T03:20:02;17.80;99.90
12315;DHT22;23886;46.614;14.276;2022-08-19T03:22:30;17.80;99.90
12315;DHT22;23886;46.614;14.276;2022-08-19T03:24:57;17.80;99.90
12315;DHT22;23886;46.614;14.276;2022-08-19T03:27:24;17.80;99.90
12315;DHT22;23886;46.614;14.276;2022-08-19T03:29:52;17.80;99.90
12315;DHT22;23886;46.614;14.276;2022-08-19T03:32:19;17.80;99.90
12315;DHT22;23886;46.614;14.276;2022-08-19T03:34:47;17.80;99.90
12315;DHT22;23886;46.614;14.276;2022-08-19T03:37:14;17.80;99.90
12315;DHT22;23886;46.614;14.276;2022-08-19T03:39:43;17.80;99.90
12315;DHT22;23886;46.614;14.276;2022-08-19T03:42:10;17.80;99.90
12315;DHT22;23886;46.614;14.276;2022-08-19T03:44:38;17.90;99.90
12315;DHT22;23886;46.614;14.276;2022-08-19T03:47:05;17.90;99.90
12315;DHT22;23886;46.614;14.276;2022-08-19T03:49:33;17.90;99.90
12315;DHT22;23886;46.614;14.276;2022-08-19T03:52:01;17.80;99.90
12315;DHT22;23886;46.614;14.276;2022-08-19T03:54:30;17.80;99.90
12315;DHT22;23886;46.614;14.276;2022-08-19T03:56:58;17.90;99.90
12315;DHT22;23886;46.614;14.276;2022-08-19T03:59:27;18.00;99.90
12315;DHT22;23886;46.614;14.276;2022-08-19T04:01:56;18.10;99.90
12315;DHT22;23886;46.614;14.276;2022-08-19T04:04:24;18.10;99.90
12315;DHT22;23886;46.614;14.276;2022-08-19T04:06:52;18.10;99.90
12315;DHT22;23886;46.614;14.276;2022-08-19T04:09:20;18.20;99.90
12315;DHT22;23886;46.614;14.276;2022-08-19T04:11:48;18.10;99.90
12315;DHT22;23886;46.614;14.276;2022-08-19T04:14:19;18.20;99.90
12315;DHT22;23886;46.614;14.276;2022-08-19T04:16:48;18.20;99.90
12315;DHT22;23886;46.614;14.276;2022-08-19T04:19:16;18.20;99.90
12315;DHT22;23886;46.614;14.276;2022-08-19T04:21:44;18.00;99.90
12315;DHT22;23886;46.614;14.276;2022-08-19T04:24:12;18.00;99.90
12315;DHT22;23886;46.614;14.276;2022-08-19T04:26:40;17.90;99.90
12315;DHT22;23886;46.614;14.276;2022-08-19T04:29:10;18.00;99.90
12315;DHT22;23886;46.614;14.276;2022-08-19T04:31:39;18.00;99.90
12315;DHT22;23886;46.614;14.276;2022-08-19T04:34:10;17.90;99.90
12315;DHT22;23886;46.614;14.276;2022-08-19T04:36:39;18.00;99.90
12315;DHT22;23886;46.614;14.276;2022-08-19T04:39:08;18.00;99.90
12315;DHT22;23886;46.614;14.276;2022-08-19T04:41:36;18.00;99.90
12315;DHT22;23886;46.614;14.276;2022-08-19T04:44:20;17.90;99.90
12315;DHT22;23886;46.614;14.276;2022-08-19T04:46:50;17.80;99.90
12315;DHT22;23886;46.614;14.276;2022-08-19T04:49:20;17.80;99.90
12315;DHT22;23886;46.614;14.276;2022-08-19T04:51:49;17.90;99.90
12315;DHT22;23886;46.614;14.276;2022-08-19T04:54:18;17.90;99.90
12315;DHT22;23886;46.614;14.276;2022-08-19T04:56:48;18.00;99.90
12315;DHT22;23886;46.614;14.276;2022-08-19T04:59:16;17.90;99.90
12315;DHT22;23886;46.614;14.276;2022-08-19T05:01:44;17.80;99.90
12315;DHT22;23886;46.614;14.276;2022-08-19T05:04:18;17.80;99.90
12315;DHT22;23886;46.614;14.276;2022-08-19T05:06:47;17.80;99.90
12315;DHT22;23886;46.614;14.276;2022-08-19T05:09:15;17.80;99.90
12315;DHT22;23886;46.614;14.276;2022-08-19T05:11:43;17.80;99.90
12315;DHT22;23886;46.614;14.276;2022-08-19T05:14:10;17.90;99.90
12315;DHT22;23886;46.614;14.276;2022-08-19T05:16:39;17.80;99.90
12315;DHT22;23886;46.614;14.276;2022-08-19T05:19:06;17.70;99.90
12315;DHT22;23886;46.614;14.276;2022-08-19T05:21:52;17.80;99.90
12315;DHT22;23886;46.614;14.276;2022-08-19T05:24:37;17.70;99.90
12315;DHT22;23886;46.614;14.276;2022-08-19T05:27:04;17.80;99.90
12315;DHT22;23886;46.614;14.276;2022-08-19T05:29:32;17.70;99.90
12315;DHT22;23886;46.614;14.276;2022-08-19T05:32:02;17.70;99.90
12315;DHT22;23886;46.614;14.276;2022-08-19T05:34:30;17.60;99.90
12315;DHT22;23886;46.614;14.276;2022-08-19T05:37:01;17.60;99.90
12315;DHT22;23886;46.614;14.276;2022-08-19T05:39:32;17.60;99.90
12315;DHT22;23886;46.614;14.276;2022-08-19T05:42:02;17.60;99.90
12315;DHT22;23886;46.614;14.276;2022-08-19T05:44:33;17.60;99.90
12315;DHT22;23886;46.614;14.276;2022-08-19T05:47:01;17.50;99.90
12315;DHT22;23886;46.614;14.276;2022-08-19T05:49:32;17.50;99.90
12315;DHT22;23886;46.614;14.276;2022-08-19T05:52:03;17.50;99.90
12315;DHT22;23886;46.614;14.276;2022-08-19T05:54:31;17.50;99.90
12315;DHT22;23886;46.614;14.276;2022-08-19T05:56:58;17.50;99.90
12315;DHT22;23886;46.614;14.276;2022-08-19T05:59:26;17.60;99.90
12315;DHT22;23886;46.614;14.276;2022-08-19T06:01:54;17.80;99.90
12315;DHT22;23886;46.614;14.276;2022-08-19T06:04:22;17.90;99.90
12315;DHT22;23886;46.614;14.276;2022-08-19T06:06:51;17.90;99.90
12315;DHT22;23886;46.614;14.276;2022-08-19T06:09:21;18.10;99.90
12315;DHT22;23886;46.614;14.276;2022-08-19T06:11:50;17.90;99.90
12315;DHT22;23886;46.614;14.276;2022-08-19T06:14:22;17.90;99.90
12315;DHT22;23886;46.614;14.276;2022-08-19T06:16:49;17.90;99.90
12315;DHT22;23886;46.614;14.276;2022-08-19T06:19:19;17.90;99.90
12315;DHT22;23886;46.614;14.276;2022-08-19T06:21:49;17.80;99.90
12315;DHT22;23886;46.614;14.276;2022-08-19T06:24:18;17.90;99.90
12315;DHT22;23886;46.614;14.276;2022-08-19T06:26:48;18.10;99.90
12315;DHT22;23886;46.614;14.276;2022-08-19T06:29:17;18.30;99.90
12315;DHT22;23886;46.614;14.276;2022-08-19T06:31:46;18.30;99.90
12315;DHT22;23886;46.614;14.276;2022-08-19T06:34:15;18.40;99.90
12315;DHT22;23886;46.614;14.276;2022-08-19T06:36:45;18.50;99.90
12315;DHT22;23886;46.614;14.276;2022-08-19T06:39:15;18.60;99.90
12315;DHT22;23886;46.614;14.276;2022-08-19T06:41:43;18.80;99.90
12315;DHT22;23886;46.614;14.276;2022-08-19T06:44:13;18.90;99.90
12315;DHT22;23886;46.614;14.276;2022-08-19T06:46:41;18.90;99.90
12315;DHT22;23886;46.614;14.276;2022-08-19T06:49:09;18.90;99.90
12315;DHT22;23886;46.614;14.276;2022-08-19T06:51:39;18.90;99.90
12315;DHT22;23886;46.614;14.276;2022-08-19T06:54:06;18.80;99.90
12315;DHT22;23886;46.614;14.276;2022-08-19T06:56:33;18.80;99.90
12315;DHT22;23886;46.614;14.276;2022-08-19T06:59:02;18.90;99.90
12315;DHT22;23886;46.614;14.276;2022-08-19T07:01:34;19.10;99.90
12315;DHT22;23886;46.614;14.276;2022-08-19T07:04:04;19.10;99.90
12315;DHT22;23886;46.614;14.276;2022-08-19T07:06:31;19.30;99.90
12315;DHT22;23886;46.614;14.276;2022-08-19T07:08:58;19.40;99.90
12315;DHT22;23886;46.614;14.276;2022-08-19T07:11:25;18.90;99.90
12315;DHT22;23886;46.614;14.276;2022-08-19T07:13:52;19.00;99.90
12315;DHT22;23886;46.614;14.276;2022-08-19T07:16:20;19.00;99.90
12315;DHT22;23886;46.614;14.276;2022-08-19T07:18:50;19.10;99.90
12315;DHT22;23886;46.614;14.276;2022-08-19T07:21:19;19.30;99.90
12315;DHT22;23886;46.614;14.276;2022-08-19T07:23:47;19.20;99.90
12315;DHT22;23886;46.614;14.276;2022-08-19T07:26:16;19.40;99.90
12315;DHT22;23886;46.614;14.276;2022-08-19T07:28:45;19.50;99.90
12315;DHT22;23886;46.614;14.276;2022-08-19T07:31:13;19.50;99.90
12315;DHT22;23886;46.614;14.276;2022-08-19T07:33:41;19.80;99.90
12315;DHT22;23886;46.614;14.276;2022-08-19T07:36:11;19.70;99.90
12315;DHT22;23886;46.614;14.276;2022-08-19T07:38:43;19.80;99.90
12315;DHT22;23886;46.614;14.276;2022-08-19T07:41:11;19.60;99.90
12315;DHT22;23886;46.614;14.276;2022-08-19T07:43:39;19.70;99.90
12315;DHT22;23886;46.614;14.276;2022-08-19T07:46:07;19.70;99.90
12315;DHT22;23886;46.614;14.276;2022-08-19T07:48:34;19.80;99.90
12315;DHT22;23886;46.614;14.276;2022-08-19T07:51:04;19.90;99.90
12315;DHT22;23886;46.614;14.276;2022-08-19T07:53:35;19.90;99.90
12315;DHT22;23886;46.614;14.276;2022-08-19T07:56:03;19.80;99.90
12315;DHT22;23886;46.614;14.276;2022-08-19T07:58:32;19.70;99.90
12315;DHT22;23886;46.614;14.276;2022-08-19T08:00:59;19.70;99.90
12315;DHT22;23886;46.614;14.276;2022-08-19T08:03:28;19.70;99.90
12315;DHT22;23886;46.614;14.276;2022-08-19T08:06:09;19.70;99.90
12315;DHT22;23886;46.614;14.276;2022-08-19T08:08:55;19.70;99.90
12315;DHT22;23886;46.614;14.276;2022-08-19T08:11:50;19.90;99.90
12315;DHT22;23886;46.614;14.276;2022-08-19T08:14:20;20.00;99.90
12315;DHT22;23886;46.614;14.276;2022-08-19T08:16:49;20.10;99.90
12315;DHT22;23886;46.614;14.276;2022-08-19T08:19:18;20.00;99.90
12315;DHT22;23886;46.614;14.276;2022-08-19T08:21:45;20.00;99.90
12315;DHT22;23886;46.614;14.276;2022-08-19T08:24:14;20.20;99.90
12315;DHT22;23886;46.614;14.276;2022-08-19T08:26:41;20.30;99.90
12315;DHT22;23886;46.614;14.276;2022-08-19T08:29:09;20.40;99.90
12315;DHT22;23886;46.614;14.276;2022-08-19T08:31:37;20.00;99.90
12315;DHT22;23886;46.614;14.276;2022-08-19T08:34:04;19.80;99.90
12315;DHT22;23886;46.614;14.276;2022-08-19T08:36:31;19.70;99.90
12315;DHT22;23886;46.614;14.276;2022-08-19T08:38:59;19.70;99.90
12315;DHT22;23886;46.614;14.276;2022-08-19T08:41:47;19.70;99.90
12315;DHT22;23886;46.614;14.276;2022-08-19T08:44:22;20.00;99.90
12315;DHT22;23886;46.614;14.276;2022-08-19T08:46:53;19.70;99.90
12315;DHT22;23886;46.614;14.276;2022-08-19T08:49:28;19.50;99.90
12315;DHT22;23886;46.614;14.276;2022-08-19T08:52:00;19.60;99.90
12315;DHT22;23886;46.614;14.276;2022-08-19T08:54:33;20.00;99.90
12315;DHT22;23886;46.614;14.276;2022-08-19T08:57:04;20.40;99.90
12315;DHT22;23886;46.614;14.276;2022-08-19T08:59:35;20.90;99.90
12315;DHT22;23886;46.614;14.276;2022-08-19T09:02:04;21.10;99.90
12315;DHT22;23886;46.614;14.276;2022-08-19T09:04:31;21.30;99.90
12315;DHT22;23886;46.614;14.276;2022-08-19T09:07:20;21.40;99.90
12315;DHT22;23886;46.614;14.276;2022-08-19T09:09:54;21.50;99.90
12315;DHT22;23886;46.614;14.276;2022-08-19T09:12:31;21.80;99.90
12315;DHT22;23886;46.614;14.276;2022-08-19T09:15:05;21.80;99.90
12315;DHT22;23886;46.614;14.276;2022-08-19T09:17:33;21.80;99.90
12315;DHT22;23886;46.614;14.276;2022-08-19T09:20:15;21.70;99.90
12315;DHT22;23886;46.614;14.276;2022-08-19T09:22:42;21.60;99.90
12315;DHT22;23886;46.614;14.276;2022-08-19T09:25:13;21.60;99.90
12315;DHT22;23886;46.614;14.276;2022-08-19T09:27:43;21.80;99.90
12315;DHT22;23886;46.614;14.276;2022-08-19T09:30:13;22.20;99.90
12315;DHT22;23886;46.614;14.276;2022-08-19T09:32:41;22.20;99.90
12315;DHT22;23886;46.614;14.276;2022-08-19T09:35:09;22.30;99.90
12315;DHT22;23886;46.614;14.276;2022-08-19T09:37:36;22.10;99.90
12315;DHT22;23886;46.614;14.276;2022-08-19T09:40:04;21.90;99.90
12315;DHT22;23886;46.614;14.276;2022-08-19T09:42:32;22.10;99.90
12315;DHT22;23886;46.614;14.276;2022-08-19T09:45:00;22.10;99.90
12315;DHT22;23886;46.614;14.276;2022-08-19T09:47:28;22.10;99.90
12315;DHT22;23886;46.614;14.276;2022-08-19T09:49:55;22.40;99.90
12315;DHT22;23886;46.614;14.276;2022-08-19T09:52:23;22.70;99.90
12315;DHT22;23886;46.614;14.276;2022-08-19T09:54:51;23.00;99.90
12315;DHT22;23886;46.614;14.276;2022-08-19T09:57:19;23.10;99.90
12315;DHT22;23886;46.614;14.276;2022-08-19T09:59:46;23.10;99.90
12315;DHT22;23886;46.614;14.276;2022-08-19T10:02:15;23.20;99.90
12315;DHT22;23886;46.614;14.276;2022-08-19T10:04:42;23.20;99.90
12315;DHT22;23886;46.614;14.276;2022-08-19T10:07:26;23.20;99.90
12315;DHT22;23886;46.614;14.276;2022-08-19T10:09:53;23.00;99.90
12315;DHT22;23886;46.614;14.276;2022-08-19T10:12:20;22.90;99.90
12315;DHT22;23886;46.614;14.276;2022-08-19T10:14:47;22.70;99.90
12315;DHT22;23886;46.614;14.276;2022-08-19T10:17:17;22.80;99.90
12315;DHT22;23886;46.614;14.276;2022-08-19T10:19:44;22.70;99.90
12315;DHT22;23886;46.614;14.276;2022-08-19T10:22:11;22.40;99.90
12315;DHT22;23886;46.614;14.276;2022-08-19T10:24:40;22.10;99.90
12315;DHT22;23886;46.614;14.276;2022-08-19T10:27:07;22.30;99.90
12315;DHT22;23886;46.614;14.276;2022-08-19T10:29:35;22.70;99.90
12315;DHT22;23886;46.614;14.276;2022-08-19T10:32:03;22.70;99.90
12315;DHT22;23886;46.614;14.276;2022-08-19T10:34:33;22.60;99.90
12315;DHT22;23886;46.614;14.276;2022-08-19T10:37:01;22.30;99.90
12315;DHT22;23886;46.614;14.276;2022-08-19T10:39:28;22.00;99.90
12315;DHT22;23886;46.614;14.276;2022-08-19T10:41:56;22.00;99.90
12315;DHT22;23886;46.614;14.276;2022-08-19T10:44:23;22.00;99.90
12315;DHT22;23886;46.614;14.276;2022-08-19T10:46:50;22.00;99.90
12315;DHT22;23886;46.614;14.276;2022-08-19T10:49:17;21.90;99.90
12315;DHT22;23886;46.614;14.276;2022-08-19T10:51:46;21.80;99.90
12315;DHT22;23886;46.614;14.276;2022-08-19T10:54:32;21.90;99.90
12315;DHT22;23886;46.614;14.276;2022-08-19T10:57:17;22.00;99.90
12315;DHT22;23886;46.614;14.276;2022-08-19T10:59:44;22.00;99.90
12315;DHT22;23886;46.614;14.276;2022-08-19T11:02:12;21.90;99.90
12315;DHT22;23886;46.614;14.276;2022-08-19T11:04:39;21.80;99.90
12315;DHT22;23886;46.614;14.276;2022-08-19T11:07:08;21.70;99.90
12315;DHT22;23886;46.614;14.276;2022-08-19T11:09:39;21.80;99.90
12315;DHT22;23886;46.614;14.276;2022-08-19T11:12:07;21.80;99.90
12315;DHT22;23886;46.614;14.276;2022-08-19T11:14:35;21.80;99.90
12315;DHT22;23886;46.614;14.276;2022-08-19T11:17:03;22.00;99.90
12315;DHT22;23886;46.614;14.276;2022-08-19T11:19:31;22.10;99.90
12315;DHT22;23886;46.614;14.276;2022-08-19T11:21:59;22.00;99.90
12315;DHT22;23886;46.614;14.276;2022-08-19T11:24:29;21.90;99.90
12315;DHT22;23886;46.614;14.276;2022-08-19T11:27:01;21.70;99.90
12315;DHT22;23886;46.614;14.276;2022-08-19T11:29:30;21.70;99.90
12315;DHT22;23886;46.614;14.276;2022-08-19T11:31:58;21.70;99.90
12315;DHT22;23886;46.614;14.276;2022-08-19T11:34:27;21.60;99.90
12315;DHT22;23886;46.614;14.276;2022-08-19T11:36:55;21.50;99.90
12315;DHT22;23886;46.614;14.276;2022-08-19T11:39:26;21.40;99.90
12315;DHT22;23886;46.614;14.276;2022-08-19T11:41:55;21.40;99.90
12315;DHT22;23886;46.614;14.276;2022-08-19T11:44:22;21.50;99.90
12315;DHT22;23886;46.614;14.276;2022-08-19T11:46:49;21.50;99.90
12315;DHT22;23886;46.614;14.276;2022-08-19T11:49:18;21.80;99.90
12315;DHT22;23886;46.614;14.276;2022-08-19T11:51:47;22.00;99.90
12315;DHT22;23886;46.614;14.276;2022-08-19T11:54:16;22.20;99.90
12315;DHT22;23886;46.614;14.276;2022-08-19T11:56:44;22.10;99.90
12315;DHT22;23886;46.614;14.276;2022-08-19T11:59:14;22.00;99.90
12315;DHT22;23886;46.614;14.276;2022-08-19T12:01:41;21.80;99.90
12315;DHT22;23886;46.614;14.276;2022-08-19T12:04:09;21.50;99.90
12315;DHT22;23886;46.614;14.276;2022-08-19T12:06:38;21.30;99.90
12315;DHT22;23886;46.614;14.276;2022-08-19T12:09:06;21.40;99.90
12315;DHT22;23886;46.614;14.276;2022-08-19T12:11:35;21.30;99.90
12315;DHT22;23886;46.614;14.276;2022-08-19T12:14:03;21.30;99.90
12315;DHT22;23886;46.614;14.276;2022-08-19T12:16:33;21.20;99.90
12315;DHT22;23886;46.614;14.276;2022-08-19T12:19:00;21.10;99.90
12315;DHT22;23886;46.614;14.276;2022-08-19T12:21:30;20.80;99.90
12315;DHT22;23886;46.614;14.276;2022-08-19T12:23:59;20.70;99.90
12315;DHT22;23886;46.614;14.276;2022-08-19T12:26:27;20.70;99.90
12315;DHT22;23886;46.614;14.276;2022-08-19T12:28:54;20.60;99.90
12315;DHT22;23886;46.614;14.276;2022-08-19T12:31:22;20.40;99.90
12315;DHT22;23886;46.614;14.276;2022-08-19T12:33:50;20.30;99.90
12315;DHT22;23886;46.614;14.276;2022-08-19T12:36:17;20.10;99.90
12315;DHT22;23886;46.614;14.276;2022-08-19T12:38:45;20.10;99.90
12315;DHT22;23886;46.614;14.276;2022-08-19T12:41:14;20.00;99.90
12315;DHT22;23886;46.614;14.276;2022-08-19T12:43:43;19.90;99.90
12315;DHT22;23886;46.614;14.276;2022-08-19T12:46:11;19.90;99.90
12315;DHT22;23886;46.614;14.276;2022-08-19T12:48:38;19.90;99.90
12315;DHT22;23886;46.614;14.276;2022-08-19T12:51:10;19.90;99.90
12315;DHT22;23886;46.614;14.276;2022-08-19T12:53:39;20.00;99.90
12315;DHT22;23886;46.614;14.276;2022-08-19T12:56:06;19.90;99.90
12315;DHT22;23886;46.614;14.276;2022-08-19T12:58:33;19.80;99.90
12315;DHT22;23886;46.614;14.276;2022-08-19T13:01:06;19.70;99.90
12315;DHT22;23886;46.614;14.276;2022-08-19T13:03:33;19.60;99.90
12315;DHT22;23886;46.614;14.276;2022-08-19T13:06:00;19.60;99.90
12315;DHT22;23886;46.614;14.276;2022-08-19T13:08:28;19.40;99.90
12315;DHT22;23886;46.614;14.276;2022-08-19T13:10:55;19.30;99.90
12315;DHT22;23886;46.614;14.276;2022-08-19T13:13:24;19.10;99.90
12315;DHT22;23886;46.614;14.276;2022-08-19T13:15:51;18.90;99.90
12315;DHT22;23886;46.614;14.276;2022-08-19T13:18:18;18.80;99.90
12315;DHT22;23886;46.614;14.276;2022-08-19T13:20:45;18.80;99.90
12315;DHT22;23886;46.614;14.276;2022-08-19T13:23:12;18.80;99.90
12315;DHT22;23886;46.614;14.276;2022-08-19T13:25:41;18.80;99.90
12315;DHT22;23886;46.614;14.276;2022-08-19T13:28:08;18.80;99.90
12315;DHT22;23886;46.614;14.276;2022-08-19T13:30:35;18.90;99.90
12315;DHT22;23886;46.614;14.276;2022-08-19T13:33:19;19.00;99.90
12315;DHT22;23886;46.614;14.276;2022-08-19T13:35:48;19.20;99.90
12315;DHT22;23886;46.614;14.276;2022-08-19T13:38:18;19.40;99.90
12315;DHT22;23886;46.614;14.276;2022-08-19T13:40:49;19.40;99.90
12315;DHT22;23886;46.614;14.276;2022-08-19T13:43:17;19.50;99.90
12315;DHT22;23886;46.614;14.276;2022-08-19T13:45:45;19.50;99.90
12315;DHT22;23886;46.614;14.276;2022-08-19T13:48:12;19.40;99.90
12315;DHT22;23886;46.614;14.276;2022-08-19T13:50:41;19.50;99.90
12315;DHT22;23886;46.614;14.276;2022-08-19T13:53:12;19.70;99.90
12315;DHT22;23886;46.614;14.276;2022-08-19T13:55:40;20.70;99.90
12315;DHT22;23886;46.614;14.276;2022-08-19T13:58:09;22.00;99.90
12315;DHT22;23886;46.614;14.276;2022-08-19T14:00:39;23.80;99.90
12315;DHT22;23886;46.614;14.276;2022-08-19T14:03:07;25.10;99.90
12315;DHT22;23886;46.614;14.276;2022-08-19T14:05:35;25.20;99.90
12315;DHT22;23886;46.614;14.276;2022-08-19T14:08:03;25.50;99.90
12315;DHT22;23886;46.614;14.276;2022-08-19T14:10:30;25.40;99.90
12315;DHT22;23886;46.614;14.276;2022-08-19T14:12:59;24.90;99.90
12315;DHT22;23886;46.614;14.276;2022-08-19T14:15:28;23.70;99.90
12315;DHT22;23886;46.614;14.276;2022-08-19T14:17:55;23.40;99.90
12315;DHT22;23886;46.614;14.276;2022-08-19T14:20:23;23.70;99.90
12315;DHT22;23886;46.614;14.276;2022-08-19T14:22:50;24.60;99.90
12315;DHT22;23886;46.614;14.276;2022-08-19T14:25:20;25.00;99.90
12315;DHT22;23886;46.614;14.276;2022-08-19T14:27:48;25.40;99.90
12315;DHT22;23886;46.614;14.276;2022-08-19T14:30:18;25.50;99.90
12315;DHT22;23886;46.614;14.276;2022-08-19T14:32:46;26.70;99.90
12315;DHT22;23886;46.614;14.276;2022-08-19T14:35:15;27.50;99.90
12315;DHT22;23886;46.614;14.276;2022-08-19T14:37:44;27.60;99.90
12315;DHT22;23886;46.614;14.276;2022-08-19T14:40:13;26.60;99.90
12315;DHT22;23886;46.614;14.276;2022-08-19T14:42:41;26.50;99.90
12315;DHT22;23886;46.614;14.276;2022-08-19T14:45:09;27.70;99.90
12315;DHT22;23886;46.614;14.276;2022-08-19T14:47:36;26.80;99.90
12315;DHT22;23886;46.614;14.276;2022-08-19T14:50:07;25.90;99.90
12315;DHT22;23886;46.614;14.276;2022-08-19T14:52:34;25.90;99.90
12315;DHT22;23886;46.614;14.276;2022-08-19T14:55:02;26.40;99.90
12315;DHT22;23886;46.614;14.276;2022-08-19T14:57:29;27.50;99.90
12315;DHT22;23886;46.614;14.276;2022-08-19T14:59:56;27.40;99.90
12315;DHT22;23886;46.614;14.276;2022-08-19T15:02:23;27.30;99.90
12315;DHT22;23886;46.614;14.276;2022-08-19T15:04:50;27.40;99.90
12315;DHT22;23886;46.614;14.276;2022-08-19T15:07:19;27.60;99.80
12315;DHT22;23886;46.614;14.276;2022-08-19T15:09:49;28.30;99.10
12315;DHT22;23886;46.614;14.276;2022-08-19T15:12:16;27.20;99.90
12315;DHT22;23886;46.614;14.276;2022-08-19T15:14:43;27.10;99.90
12315;DHT22;23886;46.614;14.276;2022-08-19T15:17:16;27.80;99.60
12315;DHT22;23886;46.614;14.276;2022-08-19T15:19:43;27.50;99.90
12315;DHT22;23886;46.614;14.276;2022-08-19T15:22:10;28.40;98.90
12315;DHT22;23886;46.614;14.276;2022-08-19T15:24:39;28.10;98.30
12315;DHT22;23886;46.614;14.276;2022-08-19T15:27:08;28.20;98.60